Time;durP1;ratioP1;P1;durP2;ratioP2;P2;SDS_P1;SDS_P2;PMS_P1;PMS_P2;Temp;Humidity;BMP_temperature;BMP_pressure;BME280_temperature;BME280_humidity;BME280_pressure;Samples;Min_cycle;Max_cycle;Signal;HPM_P1;HPM_P2
2022/12/02 00:00:25;;;;;;;41.47;20.47;;;7.60;99.90;;;;;;5057181;28;20457;-70
2022/12/02 00:02:51;;;;;;;37.20;21.43;;;7.60;99.90;;;;;;5054154;28;20842;-70
2022/12/02 00:05:20;;;;;;;38.30;21.57;;;7.50;99.90;;;;;;5055399;28;20446;-69
2022/12/02 00:07:47;;;;;;;32.67;20.30;;;7.50;99.90;;;;;;5059981;28;20433;-69
2022/12/02 00:10:21;;;;;;;40.27;22.07;;;7.50;99.90;;;;;;5058848;28;20445;-69
2022/12/02 00:12:46;;;;;;;37.37;20.00;;;7.50;99.90;;;;;;5056442;28;20429;-70
2022/12/02 00:15:44;;;;;;;40.40;21.17;;;7.50;99.90;;;;;;5060467;28;21575;-69
2022/12/02 00:18:11;;;;;;;38.87;19.93;;;7.50;99.90;;;;;;5056913;28;20278;-68
2022/12/02 00:20:38;;;;;;;40.20;20.50;;;7.50;99.90;;;;;;5057205;28;20911;-69
2022/12/02 00:23:04;;;;;;;38.67;21.83;;;7.50;99.90;;;;;;5058976;28;20422;-69
2022/12/02 00:25:30;;;;;;;43.10;22.80;;;7.50;99.90;;;;;;5056965;28;20475;-69
2022/12/02 00:27:55;;;;;;;45.07;22.10;;;7.50;99.90;;;;;;5058022;28;20433;-70
2022/12/02 00:30:21;;;;;;;36.90;19.60;;;7.50;99.90;;;;;;5060423;28;20194;-69
2022/12/02 00:32:47;;;;;;;43.90;21.27;;;7.50;99.90;;;;;;5060200;28;20946;-69
2022/12/02 00:35:13;;;;;;;38.83;21.17;;;7.50;99.90;;;;;;5060315;28;20261;-69
2022/12/02 00:37:38;;;;;;;41.23;20.53;;;7.50;99.90;;;;;;5057486;28;20191;-70
2022/12/02 00:40:04;;;;;;;38.60;20.50;;;7.50;99.90;;;;;;5053620;28;20933;-69
2022/12/02 00:42:30;;;;;;;37.93;19.77;;;7.50;99.90;;;;;;5056072;28;20185;-68
2022/12/02 00:47:40;;;;;;;40.47;19.73;;;7.50;99.90;;;;;;5056056;28;20190;-69
2022/12/02 00:50:06;;;;;;;38.93;20.73;;;7.50;99.90;;;;;;5058900;28;20810;-69
2022/12/02 00:52:31;;;;;;;38.23;21.37;;;7.50;99.90;;;;;;5059830;28;20187;-69
2022/12/02 00:54:57;;;;;;;43.50;21.33;;;7.50;99.90;;;;;;5059876;28;20455;-69
2022/12/02 00:57:22;;;;;;;40.30;20.47;;;7.50;99.90;;;;;;5056889;28;20194;-70
2022/12/02 00:59:48;;;;;;;40.37;20.30;;;7.40;99.90;;;;;;5043402;28;20215;-70
2022/12/02 01:02:14;;;;;;;40.67;20.93;;;7.50;99.90;;;;;;5059123;28;20270;-69
2022/12/02 01:04:39;;;;;;;40.30;20.90;;;7.50;99.90;;;;;;5057362;28;20202;-69
2022/12/02 01:07:05;;;;;;;41.47;21.87;;;7.40;99.90;;;;;;5043784;28;20187;-70
2022/12/02 01:09:30;;;;;;;40.17;21.20;;;7.40;99.90;;;;;;5057600;28;20183;-69
2022/12/02 01:11:56;;;;;;;40.73;23.13;;;7.40;99.90;;;;;;5056541;28;20194;-71
2022/12/02 01:14:21;;;;;;;38.53;21.00;;;7.40;99.90;;;;;;5058335;28;20221;-69
2022/12/02 01:16:47;;;;;;;43.90;21.57;;;7.40;99.90;;;;;;5056677;28;20186;-70
2022/12/02 01:19:12;;;;;;;41.37;22.80;;;7.40;99.90;;;;;;5059888;28;20218;-70
2022/12/02 01:21:38;;;;;;;44.57;22.53;;;7.40;99.90;;;;;;5060164;28;20702;-70
2022/12/02 01:24:04;;;;;;;35.97;20.33;;;7.40;99.90;;;;;;5057241;28;20190;-70
2022/12/02 01:26:29;;;;;;;37.57;21.90;;;7.50;99.90;;;;;;5057867;28;20245;-69
2022/12/02 01:28:55;;;;;;;38.93;20.10;;;7.40;99.90;;;;;;5057620;28;20187;-69
2022/12/02 01:31:21;;;;;;;41.93;19.67;;;7.40;99.90;;;;;;5054309;28;20191;-69
2022/12/02 01:33:47;;;;;;;38.80;20.30;;;7.40;99.90;;;;;;5059419;28;20286;-70
2022/12/02 01:36:12;;;;;;;47.57;22.30;;;7.40;99.90;;;;;;5055867;28;20541;-69
2022/12/02 01:38:38;;;;;;;44.00;22.50;;;7.30;99.90;;;;;;5056656;28;20210;-72
2022/12/02 01:41:04;;;;;;;39.27;20.80;;;7.30;99.90;;;;;;5041452;28;20179;-70
2022/12/02 01:43:30;;;;;;;40.93;20.00;;;7.30;99.90;;;;;;5058095;28;20182;-69
2022/12/02 01:45:55;;;;;;;36.20;20.40;;;7.30;99.90;;;;;;5050666;28;20453;-69
2022/12/02 01:48:21;;;;;;;36.57;20.40;;;7.30;99.90;;;;;;5063537;28;20175;-69
2022/12/02 01:50:47;;;;;;;44.60;21.80;;;7.30;99.90;;;;;;5059003;28;20217;-69
2022/12/02 01:53:13;;;;;;;37.07;20.80;;;7.30;99.90;;;;;;5058362;28;20190;-69
2022/12/02 01:55:39;;;;;;;41.97;21.47;;;7.30;99.90;;;;;;5050765;28;20453;-69
2022/12/02 01:58:05;;;;;;;38.47;19.57;;;7.40;99.90;;;;;;5055425;28;20191;-69
2022/12/02 02:00:30;;;;;;;41.50;22.83;;;7.40;99.90;;;;;;5055565;28;20186;-69
2022/12/02 02:02:56;;;;;;;42.20;22.27;;;7.40;99.90;;;;;;5054941;28;20183;-69
2022/12/02 02:05:25;;;;;;;37.17;20.30;;;7.40;99.90;;;;;;5055742;28;20203;-68
2022/12/02 02:07:54;;;;;;;42.33;21.67;;;7.40;99.90;;;;;;5056757;28;20183;-71
2022/12/02 02:10:22;;;;;;;47.53;22.07;;;7.40;99.90;;;;;;5053818;28;20512;-71
2022/12/02 02:12:50;;;;;;;46.40;21.00;;;7.40;99.90;;;;;;5039208;28;20441;-70
2022/12/02 02:15:16;;;;;;;44.53;22.47;;;7.40;99.90;;;;;;5054939;28;20510;-69
2022/12/02 02:17:43;;;;;;;47.30;20.50;;;7.40;99.90;;;;;;5054449;28;20453;-69
2022/12/02 02:20:13;;;;;;;42.37;21.80;;;7.40;99.90;;;;;;5055350;28;20974;-69
2022/12/02 02:23:19;;;;;;;39.03;19.77;;;7.40;99.90;;;;;;5055056;28;20442;-69
2022/12/02 02:25:47;;;;;;;41.80;20.40;;;7.40;99.90;;;;;;4936924;28;21154;-68
2022/12/02 02:28:12;;;;;;;42.90;21.07;;;7.40;99.90;;;;;;4954960;28;20481;-70
2022/12/02 02:30:39;;;;;;;43.17;21.97;;;7.40;99.90;;;;;;4999856;28;20834;-69
2022/12/02 02:33:07;;;;;;;46.30;23.33;;;7.30;99.90;;;;;;5052191;28;20193;-69
2022/12/02 02:35:35;;;;;;;45.87;22.30;;;7.30;99.90;;;;;;5054779;28;21077;-69
2022/12/02 02:38:01;;;;;;;47.50;23.60;;;7.30;99.90;;;;;;5058943;28;20507;-69
2022/12/02 02:40:28;;;;;;;44.07;22.57;;;7.30;99.90;;;;;;5057063;28;20472;-69
2022/12/02 02:42:58;;;;;;;44.27;22.33;;;7.30;99.90;;;;;;5051303;28;20525;-69
2022/12/02 02:45:26;;;;;;;36.60;19.50;;;7.30;99.90;;;;;;5050690;28;20534;-69
2022/12/02 02:47:53;;;;;;;46.53;22.53;;;7.30;99.90;;;;;;5058991;28;20999;-68
2022/12/02 02:50:20;;;;;;;45.10;20.60;;;7.30;99.90;;;;;;5058424;28;20582;-69
2022/12/02 02:52:46;;;;;;;40.00;21.40;;;7.30;99.90;;;;;;5059842;28;20486;-69
2022/12/02 02:55:22;;;;;;;42.10;21.23;;;7.30;99.90;;;;;;5054809;28;20505;-69
2022/12/02 02:57:48;;;;;;;37.77;21.00;;;7.30;99.90;;;;;;5040963;28;20880;-70
2022/12/02 03:00:15;;;;;;;50.47;22.50;;;7.30;99.90;;;;;;5060673;28;20509;-69
2022/12/02 03:02:43;;;;;;;45.50;21.20;;;7.30;99.90;;;;;;5055165;28;20434;-69
2022/12/02 03:05:09;;;;;;;37.57;19.90;;;7.30;99.90;;;;;;5044334;28;20986;-69
2022/12/02 03:07:35;;;;;;;39.40;21.93;;;7.30;99.90;;;;;;5057869;28;20429;-69
2022/12/02 03:10:02;;;;;;;41.97;21.10;;;7.30;99.90;;;;;;5063341;28;20236;-69
2022/12/02 03:12:28;;;;;;;39.20;20.60;;;7.30;99.90;;;;;;5058117;28;20441;-69
2022/12/02 03:14:54;;;;;;;38.93;20.27;;;7.30;99.90;;;;;;5061807;28;20467;-69
2022/12/02 03:17:20;;;;;;;39.17;22.03;;;7.30;99.90;;;;;;5056211;28;20195;-68
2022/12/02 03:19:46;;;;;;;52.23;22.03;;;7.30;99.90;;;;;;5059939;28;20461;-68
2022/12/02 03:22:12;;;;;;;41.33;21.40;;;7.30;99.90;;;;;;5055797;28;20645;-68
2022/12/02 03:24:38;;;;;;;47.43;23.00;;;7.30;99.90;;;;;;5057945;28;20523;-68
2022/12/02 03:27:06;;;;;;;49.87;22.63;;;7.30;99.90;;;;;;5056184;28;20510;-68
2022/12/02 03:29:32;;;;;;;42.63;22.30;;;7.30;99.90;;;;;;5057847;28;20494;-68
2022/12/02 03:31:59;;;;;;;39.77;20.50;;;7.30;99.90;;;;;;5054776;28;20450;-69
2022/12/02 03:34:26;;;;;;;39.53;20.20;;;7.30;99.90;;;;;;5059524;28;20442;-69
2022/12/02 03:36:52;;;;;;;47.47;21.77;;;7.40;99.90;;;;;;5056669;28;21000;-69
2022/12/02 03:39:18;;;;;;;47.03;21.73;;;7.40;99.90;;;;;;5057985;28;20473;-70
2022/12/02 03:41:45;;;;;;;42.90;22.00;;;7.30;99.90;;;;;;5057270;28;20191;-69
2022/12/02 03:44:11;;;;;;;42.73;23.27;;;7.30;99.90;;;;;;5037360;28;20244;-69
2022/12/02 03:46:36;;;;;;;39.63;22.40;;;7.30;99.90;;;;;;5056522;28;20433;-69
2022/12/02 03:49:03;;;;;;;42.20;22.80;;;7.30;99.90;;;;;;5046668;28;20186;-69
2022/12/02 03:51:30;;;;;;;44.20;21.73;;;7.30;99.90;;;;;;5058461;28;20262;-69
2022/12/02 03:53:56;;;;;;;43.40;22.10;;;7.30;99.90;;;;;;5064474;28;20431;-70
2022/12/02 03:56:22;;;;;;;42.40;21.70;;;7.30;99.90;;;;;;5060112;28;20456;-69
2022/12/02 03:58:50;;;;;;;40.30;20.80;;;7.30;99.90;;;;;;5061291;28;21256;-69
2022/12/02 04:01:17;;;;;;;40.23;21.70;;;7.30;99.90;;;;;;5058481;28;20520;-69
2022/12/02 04:03:43;;;;;;;42.63;22.83;;;7.30;99.90;;;;;;5061407;28;20532;-70
2022/12/02 04:06:09;;;;;;;43.97;22.03;;;7.30;99.90;;;;;;5060473;28;20525;-69
2022/12/02 04:08:35;;;;;;;45.23;23.00;;;7.30;99.90;;;;;;5058383;28;20187;-70
2022/12/02 04:11:01;;;;;;;46.20;21.80;;;7.30;99.90;;;;;;5061393;28;20512;-70
2022/12/02 04:13:27;;;;;;;47.00;22.13;;;7.30;99.90;;;;;;5060961;28;20873;-70
2022/12/02 04:15:52;;;;;;;41.40;21.70;;;7.30;99.90;;;;;;5060199;28;21143;-70
2022/12/02 04:18:18;;;;;;;45.60;21.93;;;7.30;99.90;;;;;;5058258;28;20278;-70
2022/12/02 04:20:43;;;;;;;44.73;22.73;;;7.30;99.90;;;;;;5058779;28;20187;-70
2022/12/02 04:23:09;;;;;;;44.40;21.60;;;7.30;99.90;;;;;;5058334;28;20822;-70
2022/12/02 04:25:34;;;;;;;38.90;21.07;;;7.30;99.90;;;;;;5053431;28;20203;-70
2022/12/02 04:28:00;;;;;;;43.77;21.50;;;7.30;99.90;;;;;;5056596;28;20190;-69
2022/12/02 04:30:26;;;;;;;41.57;20.60;;;7.30;99.90;;;;;;5055552;28;20310;-70
2022/12/02 04:32:52;;;;;;;42.83;22.37;;;7.30;99.90;;;;;;5056104;28;20524;-69
2022/12/02 04:35:17;;;;;;;38.43;20.93;;;7.30;99.90;;;;;;5053612;28;20221;-70
2022/12/02 04:37:43;;;;;;;40.23;20.67;;;7.30;99.90;;;;;;5057313;28;20567;-68
2022/12/02 04:40:09;;;;;;;41.90;20.37;;;7.30;99.90;;;;;;5037655;28;20246;-69
2022/12/02 04:42:34;;;;;;;40.63;22.33;;;7.30;99.90;;;;;;5058517;28;20195;-69
2022/12/02 04:45:01;;;;;;;39.37;20.60;;;7.30;99.90;;;;;;5061641;28;20472;-69
2022/12/02 04:47:26;;;;;;;38.50;19.50;;;7.30;99.90;;;;;;5057749;28;20559;-69
2022/12/02 04:49:52;;;;;;;42.87;20.37;;;7.30;99.90;;;;;;5060238;28;20457;-69
2022/12/02 04:52:17;;;;;;;37.37;20.47;;;7.30;99.90;;;;;;5058392;28;20187;-69
2022/12/02 04:54:43;;;;;;;39.17;21.13;;;7.30;99.90;;;;;;5058080;28;20275;-69
2022/12/02 04:57:08;;;;;;;43.43;22.90;;;7.20;99.90;;;;;;5038776;28;20199;-72
2022/12/02 04:59:34;;;;;;;41.23;21.70;;;7.30;99.90;;;;;;5054877;28;20309;-70
2022/12/02 05:01:59;;;;;;;42.43;23.00;;;7.30;99.90;;;;;;5054174;28;20329;-70
2022/12/02 05:04:25;;;;;;;40.77;21.17;;;7.30;99.90;;;;;;5059416;28;20187;-69
2022/12/02 05:06:51;;;;;;;42.07;21.50;;;7.30;99.90;;;;;;5064586;28;20229;-71
2022/12/02 05:09:16;;;;;;;41.40;22.20;;;7.30;99.90;;;;;;5060785;28;20188;-71
2022/12/02 05:11:42;;;;;;;45.13;21.57;;;7.30;99.90;;;;;;5062207;28;20202;-71
2022/12/02 05:14:07;;;;;;;44.60;21.90;;;7.30;99.90;;;;;;5054887;28;20214;-70
2022/12/02 05:16:33;;;;;;;39.80;21.27;;;7.30;99.90;;;;;;5057285;28;20211;-71
2022/12/02 05:18:58;;;;;;;34.90;19.03;;;7.20;99.90;;;;;;5057141;28;20234;-69
2022/12/02 05:21:24;;;;;;;42.53;21.50;;;7.20;99.90;;;;;;5058292;28;20205;-69
2022/12/02 05:23:49;;;;;;;38.77;20.40;;;7.30;99.90;;;;;;5059196;28;20270;-69
2022/12/02 05:26:15;;;;;;;44.40;21.53;;;7.30;99.90;;;;;;5041333;28;20210;-69
2022/12/02 05:28:40;;;;;;;41.67;21.77;;;7.30;99.90;;;;;;5057904;28;20197;-70
2022/12/02 05:31:06;;;;;;;41.13;21.70;;;7.30;99.90;;;;;;5055705;28;20211;-68
2022/12/02 05:33:31;;;;;;;45.97;20.57;;;7.30;99.90;;;;;;5059657;28;20679;-68
2022/12/02 05:35:57;;;;;;;42.40;22.97;;;7.30;99.90;;;;;;5055271;28;20289;-68
2022/12/02 05:38:22;;;;;;;43.33;21.87;;;7.20;99.90;;;;;;5058338;28;20199;-71
2022/12/02 05:40:50;;;;;;;38.37;19.30;;;7.20;99.90;;;;;;5053992;28;20241;-70
2022/12/02 05:43:17;;;;;;;37.10;20.03;;;7.20;99.90;;;;;;5054541;28;20278;-69
2022/12/02 05:45:43;;;;;;;45.20;22.03;;;7.20;99.90;;;;;;5054172;28;20464;-69
2022/12/02 05:48:15;;;;;;;44.33;20.20;;;7.20;99.90;;;;;;5038037;28;20429;-68
2022/12/02 05:50:42;;;;;;;37.57;20.10;;;7.20;99.90;;;;;;5056421;28;20444;-69
2022/12/02 05:53:25;;;;;;;41.57;22.07;;;7.20;99.90;;;;;;5057808;28;20434;-68
2022/12/02 05:55:53;;;;;;;37.80;18.30;;;7.20;99.90;;;;;;5056613;28;20457;-68
2022/12/02 05:58:18;;;;;;;39.07;19.67;;;7.20;99.90;;;;;;5053151;28;20494;-68
2022/12/02 06:00:55;;;;;;;39.50;19.13;;;7.20;99.90;;;;;;5052923;28;21157;-69
2022/12/02 06:03:21;;;;;;;37.23;19.40;;;7.20;99.90;;;;;;5054713;28;21251;-69
2022/12/02 06:05:48;;;;;;;40.40;19.30;;;7.20;99.90;;;;;;5055983;28;20449;-68
2022/12/02 06:08:18;;;;;;;46.73;21.10;;;7.10;99.90;;;;;;5055625;28;20430;-69
2022/12/02 06:11:13;;;;;;;43.00;19.60;;;7.10;99.90;;;;;;5039492;28;20720;-69
2022/12/02 06:13:38;;;;;;;42.60;19.63;;;7.10;99.90;;;;;;5050935;28;20498;-69
2022/12/02 06:16:07;;;;;;;41.17;21.00;;;7.10;99.90;;;;;;5055927;28;21067;-70
2022/12/02 06:18:35;;;;;;;39.93;21.80;;;7.10;99.90;;;;;;5052483;28;20199;-69
2022/12/02 06:21:03;;;;;;;40.67;21.20;;;7.10;99.90;;;;;;5036139;28;20950;-69
2022/12/02 06:23:31;;;;;;;38.63;20.80;;;7.10;99.90;;;;;;5051483;28;20527;-70
2022/12/02 06:25:58;;;;;;;37.70;21.93;;;7.10;99.90;;;;;;5053910;28;20921;-69
2022/12/02 06:28:33;;;;;;;40.50;19.60;;;7.10;99.90;;;;;;5052746;28;20476;-69
2022/12/02 06:31:08;;;;;;;42.20;20.73;;;7.20;99.90;;;;;;5050313;28;20433;-70
2022/12/02 06:33:36;;;;;;;47.67;22.30;;;7.20;99.90;;;;;;5053579;28;20482;-70
2022/12/02 06:36:08;;;;;;;45.73;20.80;;;7.20;99.90;;;;;;5049581;28;21026;-69
2022/12/02 06:38:41;;;;;;;42.33;20.43;;;7.20;99.90;;;;;;5056591;28;20437;-71
2022/12/02 06:41:25;;;;;;;36.77;20.07;;;7.20;99.90;;;;;;5058217;28;20524;-69
2022/12/02 06:46:40;;;;;;;39.03;20.70;;;7.10;99.90;;;;;;5055762;28;20440;-69
2022/12/02 06:49:31;;;;;;;41.70;21.47;;;7.20;99.90;;;;;;5056992;28;20442;-72
2022/12/02 06:51:59;;;;;;;39.00;21.37;;;7.20;99.90;;;;;;5058174;28;20766;-70
2022/12/02 06:54:29;;;;;;;44.43;19.47;;;7.20;99.90;;;;;;5057000;28;20436;-69
2022/12/02 06:56:57;;;;;;;36.70;19.87;;;7.10;99.90;;;;;;5054851;28;20428;-70
2022/12/02 06:59:24;;;;;;;34.70;19.37;;;7.10;99.90;;;;;;5052233;28;20457;-71
2022/12/02 07:01:59;;;;;;;36.53;20.30;;;7.20;99.90;;;;;;5057156;28;20464;-71
2022/12/02 07:04:39;;;;;;;44.60;21.67;;;7.10;99.90;;;;;;5053865;28;20466;-71
2022/12/02 07:07:21;;;;;;;44.37;20.53;;;7.10;99.90;;;;;;5056193;28;20433;-71
2022/12/02 07:09:52;;;;;;;41.27;21.60;;;7.10;99.90;;;;;;5054909;28;20418;-71
2022/12/02 07:12:20;;;;;;;45.37;20.80;;;7.10;99.90;;;;;;5053644;28;20413;-71
2022/12/02 07:14:58;;;;;;;41.37;18.87;;;7.10;99.90;;;;;;5051741;28;20461;-71
2022/12/02 07:17:39;;;;;;;40.10;20.83;;;7.10;99.90;;;;;;5035754;28;20827;-70
2022/12/02 07:20:04;;;;;;;36.77;20.40;;;7.10;99.90;;;;;;5052346;28;20972;-71
2022/12/02 07:22:37;;;;;;;38.80;20.17;;;7.10;99.90;;;;;;5054190;28;20532;-70
2022/12/02 07:25:06;;;;;;;37.83;18.40;;;7.10;99.90;;;;;;5052336;28;20198;-72
2022/12/02 07:27:35;;;;;;;36.30;19.80;;;7.10;99.90;;;;;;5047383;28;20429;-71
2022/12/02 07:30:01;;;;;;;41.63;20.80;;;7.10;99.90;;;;;;5056321;28;20436;-71
2022/12/02 07:32:27;;;;;;;43.10;21.70;;;7.10;99.90;;;;;;5054715;28;20450;-71
2022/12/02 07:34:52;;;;;;;40.40;20.30;;;7.10;99.90;;;;;;5056894;28;21174;-73
2022/12/02 07:37:18;;;;;;;39.00;20.20;;;7.10;99.90;;;;;;5053885;28;20339;-72
2022/12/02 07:39:44;;;;;;;39.60;20.43;;;7.20;99.90;;;;;;5059545;28;20329;-71
2022/12/02 07:42:09;;;;;;;44.30;20.60;;;7.20;99.90;;;;;;5060340;28;20427;-72
2022/12/02 07:44:35;;;;;;;38.67;20.60;;;7.20;99.90;;;;;;5055767;28;20253;-73
2022/12/02 07:47:02;;;;;;;42.13;18.83;;;7.20;99.90;;;;;;5060097;28;20178;-72
2022/12/02 07:49:30;;;;;;;41.47;20.67;;;7.20;99.90;;;;;;5052977;28;20241;-71
2022/12/02 07:51:56;;;;;;;36.47;19.67;;;7.20;99.90;;;;;;5053561;28;20437;-72
2022/12/02 07:54:22;;;;;;;40.70;20.40;;;7.20;99.90;;;;;;5055203;28;20445;-71
2022/12/02 07:56:47;;;;;;;47.67;22.00;;;7.20;99.90;;;;;;5042335;28;20437;-69
2022/12/02 07:59:13;;;;;;;50.50;22.20;;;7.20;99.90;;;;;;5046287;28;20195;-70
2022/12/02 08:01:39;;;;;;;41.17;22.03;;;7.20;99.90;;;;;;5051539;28;20182;-70
2022/12/02 08:04:05;;;;;;;40.60;21.23;;;7.20;99.90;;;;;;5043911;28;20183;-70
2022/12/02 08:06:30;;;;;;;45.77;21.87;;;7.20;99.90;;;;;;5052184;28;20455;-70
2022/12/02 08:08:56;;;;;;;39.00;19.83;;;7.20;99.90;;;;;;5054794;28;20730;-71
2022/12/02 08:11:21;;;;;;;41.73;20.87;;;7.20;99.90;;;;;;5053470;28;20175;-69
2022/12/02 08:13:47;;;;;;;32.20;18.70;;;7.20;99.90;;;;;;5049535;28;20695;-68
2022/12/02 08:16:12;;;;;;;44.47;23.00;;;7.20;99.90;;;;;;5039097;28;20222;-68
2022/12/02 08:18:38;;;;;;;43.60;20.80;;;7.20;99.90;;;;;;5051122;28;20341;-68
2022/12/02 08:21:04;;;;;;;45.67;21.97;;;7.20;99.90;;;;;;5049053;28;20206;-68
2022/12/02 08:23:29;;;;;;;39.27;19.87;;;7.20;99.90;;;;;;5048847;28;20179;-68
2022/12/02 08:25:55;;;;;;;34.03;18.67;;;7.20;99.90;;;;;;5053478;28;20238;-68
2022/12/02 08:28:21;;;;;;;40.30;18.80;;;7.20;99.90;;;;;;5051491;28;20179;-67
2022/12/02 08:30:46;;;;;;;39.07;20.27;;;7.20;99.90;;;;;;5053792;28;20674;-68
2022/12/02 08:33:12;;;;;;;37.37;20.00;;;7.20;99.90;;;;;;5053382;28;20426;-72
2022/12/02 08:35:38;;;;;;;44.17;22.10;;;7.20;99.90;;;;;;5058472;28;20746;-71
2022/12/02 08:38:06;;;;;;;36.27;20.17;;;7.20;99.90;;;;;;5054213;28;20569;-71
2022/12/02 08:40:33;;;;;;;41.90;20.03;;;7.20;99.90;;;;;;5055925;28;20501;-71
2022/12/02 08:43:00;;;;;;;47.80;20.23;;;7.20;99.90;;;;;;5051717;28;20533;-70
2022/12/02 08:45:26;;;;;;;38.43;21.00;;;7.20;99.90;;;;;;5053424;28;20457;-70
2022/12/02 08:47:51;;;;;;;42.53;19.40;;;7.20;99.90;;;;;;5053467;28;20480;-70
2022/12/02 08:50:17;;;;;;;37.33;18.80;;;7.20;99.90;;;;;;5053795;28;20183;-70
2022/12/02 08:52:42;;;;;;;35.87;19.30;;;7.20;99.90;;;;;;5050513;28;20187;-70
2022/12/02 08:55:08;;;;;;;41.83;17.80;;;7.10;99.90;;;;;;5055104;28;20199;-70
2022/12/02 08:57:34;;;;;;;39.50;19.70;;;7.20;99.90;;;;;;5053364;28;20190;-72
2022/12/02 08:59:59;;;;;;;37.17;18.70;;;7.20;99.90;;;;;;5053044;28;20203;-69
2022/12/02 09:02:25;;;;;;;35.73;18.07;;;7.20;99.90;;;;;;5041448;28;20190;-70
2022/12/02 09:04:50;;;;;;;39.43;17.50;;;7.20;99.90;;;;;;5054008;28;20632;-72
2022/12/02 09:07:16;;;;;;;31.83;18.50;;;7.20;99.90;;;;;;5055144;28;20191;-71
2022/12/02 09:09:42;;;;;;;38.03;19.87;;;7.20;99.90;;;;;;5055492;28;20195;-73
2022/12/02 09:12:08;;;;;;;35.20;18.90;;;7.20;99.90;;;;;;5056165;28;20274;-72
2022/12/02 09:14:33;;;;;;;39.43;20.00;;;7.20;99.90;;;;;;5056926;28;20551;-71
2022/12/02 09:16:59;;;;;;;38.23;20.50;;;7.20;99.90;;;;;;5053246;28;20182;-71
2022/12/02 09:19:24;;;;;;;34.50;19.63;;;7.30;99.90;;;;;;5051000;28;21008;-72
2022/12/02 09:21:50;;;;;;;40.93;21.73;;;7.20;99.90;;;;;;5051162;28;20681;-72
2022/12/02 09:24:15;;;;;;;45.57;23.60;;;7.20;99.90;;;;;;5051632;28;20206;-71
2022/12/02 09:26:41;;;;;;;47.73;21.90;;;7.30;99.90;;;;;;5052331;28;20668;-72
2022/12/02 09:29:06;;;;;;;43.77;20.30;;;7.30;99.90;;;;;;5052305;28;20213;-70
2022/12/02 09:31:32;;;;;;;36.03;21.13;;;7.30;99.90;;;;;;5051563;28;20183;-71
2022/12/02 09:33:57;;;;;;;41.07;21.00;;;7.30;99.90;;;;;;5052182;28;20242;-68
2022/12/02 09:36:23;;;;;;;40.63;19.93;;;7.30;99.90;;;;;;5049822;28;20203;-68
2022/12/02 09:38:48;;;;;;;36.80;20.27;;;7.30;99.90;;;;;;5035901;28;20206;-68
2022/12/02 09:41:14;;;;;;;34.67;17.47;;;7.30;99.90;;;;;;5049730;28;20767;-69
2022/12/02 09:43:41;;;;;;;35.30;18.07;;;7.30;99.90;;;;;;5052337;28;20207;-68
2022/12/02 09:46:08;;;;;;;35.50;18.80;;;7.40;99.90;;;;;;5048063;28;20207;-67
2022/12/02 09:48:34;;;;;;;41.53;19.63;;;7.40;99.90;;;;;;5048736;28;20440;-69
2022/12/02 09:51:00;;;;;;;37.90;19.37;;;7.40;99.90;;;;;;5050047;28;20433;-68
2022/12/02 09:53:30;;;;;;;32.73;18.63;;;7.40;99.90;;;;;;5053226;28;20801;-69
2022/12/02 09:56:03;;;;;;;41.50;20.70;;;7.40;99.90;;;;;;5048558;28;20758;-70
2022/12/02 09:58:29;;;;;;;36.70;19.63;;;7.40;99.90;;;;;;5053138;28;20528;-70
2022/12/02 10:00:54;;;;;;;41.47;20.37;;;7.40;99.90;;;;;;5047073;28;21130;-70
2022/12/02 10:03:24;;;;;;;35.90;20.20;;;7.40;99.90;;;;;;5047702;28;20183;-70
2022/12/02 10:05:50;;;;;;;31.43;19.30;;;7.40;99.90;;;;;;5052515;28;20540;-70
2022/12/02 10:08:22;;;;;;;34.97;19.80;;;7.50;99.90;;;;;;5053536;28;20436;-69
2022/12/02 10:10:49;;;;;;;43.07;19.97;;;7.50;99.90;;;;;;5054116;28;20249;-69
2022/12/02 10:13:18;;;;;;;35.17;19.50;;;7.50;99.90;;;;;;5049910;28;20514;-71
2022/12/02 10:15:43;;;;;;;40.40;20.50;;;7.50;99.90;;;;;;5051381;28;20461;-69
2022/12/02 10:18:17;;;;;;;34.40;19.70;;;7.60;99.90;;;;;;5048505;28;21083;-70
2022/12/02 10:20:43;;;;;;;32.40;17.77;;;7.60;99.90;;;;;;5050681;28;20837;-70
2022/12/02 10:23:13;;;;;;;38.20;18.73;;;7.60;99.90;;;;;;5050413;28;20433;-71
2022/12/02 10:25:43;;;;;;;35.97;19.23;;;7.70;99.90;;;;;;5051242;28;20540;-70
2022/12/02 10:28:24;;;;;;;39.47;18.70;;;7.70;99.90;;;;;;5048384;28;20449;-70
2022/12/02 10:31:06;;;;;;;34.93;18.47;;;7.60;99.90;;;;;;5050925;28;20551;-69
2022/12/02 10:33:35;;;;;;;32.77;18.00;;;7.60;99.90;;;;;;5047499;28;20449;-70
2022/12/02 10:36:02;;;;;;;39.23;18.83;;;7.60;99.90;;;;;;5050034;28;20441;-69
2022/12/02 10:38:40;;;;;;;37.73;19.90;;;7.60;99.90;;;;;;5046089;28;20468;-72
2022/12/02 10:41:15;;;;;;;39.33;20.93;;;7.60;99.90;;;;;;5051958;28;20417;-71
2022/12/02 10:43:43;;;;;;;50.30;30.40;;;7.50;99.90;;;;;;5051686;28;20454;-71
2022/12/02 10:46:13;;;;;;;41.70;21.73;;;7.50;99.90;;;;;;5033489;28;20981;-71
2022/12/02 10:48:39;;;;;;;36.00;18.63;;;7.50;99.90;;;;;;5034056;28;20837;-71
2022/12/02 10:51:05;;;;;;;37.67;20.13;;;7.50;99.90;;;;;;5052843;28;20492;-73
2022/12/02 10:53:30;;;;;;;38.97;19.27;;;7.50;99.90;;;;;;5052173;28;21315;-73
2022/12/02 10:55:56;;;;;;;38.30;20.07;;;7.50;99.90;;;;;;5051063;28;20265;-73
2022/12/02 10:58:28;;;;;;;36.47;19.50;;;7.50;99.90;;;;;;5054522;28;20599;-73
2022/12/02 11:00:55;;;;;;;36.10;20.07;;;7.40;99.90;;;;;;5052751;28;20180;-72
2022/12/02 11:03:21;;;;;;;35.13;18.73;;;7.40;99.90;;;;;;5052965;28;20449;-73
2022/12/02 11:05:47;;;;;;;36.40;18.33;;;7.40;99.90;;;;;;5053906;28;20473;-73
2022/12/02 11:08:20;;;;;;;36.07;18.07;;;7.40;99.90;;;;;;5052368;28;20425;-75
2022/12/02 11:10:49;;;;;;;35.77;18.50;;;7.40;99.90;;;;;;5049792;28;20850;-69
2022/12/02 11:13:14;;;;;;;37.67;18.80;;;7.40;99.90;;;;;;5038916;28;20456;-70
2022/12/02 11:18:24;;;;;;;41.03;20.17;;;7.50;99.90;;;;;;5655892;22;20482;-68
2022/12/02 11:21:01;;;;;;;32.80;17.90;;;7.50;99.90;;;;;;5009073;28;20520;-68
2022/12/02 11:23:31;;;;;;;33.37;18.13;;;7.50;99.90;;;;;;5005901;28;20501;-67
2022/12/02 11:26:08;;;;;;;32.70;17.27;;;7.50;99.90;;;;;;5005060;28;20470;-70
2022/12/02 11:29:08;;;;;;;32.30;16.00;;;7.50;99.90;;;;;;4997909;28;20458;-68
2022/12/02 11:31:37;;;;;;;46.23;19.93;;;7.50;99.90;;;;;;4980156;28;20454;-70
2022/12/02 11:34:07;;;;;;;33.73;18.00;;;7.50;99.90;;;;;;4999695;28;20467;-68
2022/12/02 11:36:34;;;;;;;35.87;18.40;;;7.60;99.90;;;;;;5021910;28;20889;-68
2022/12/02 11:39:08;;;;;;;29.90;18.20;;;7.50;99.90;;;;;;4989064;28;20500;-69
2022/12/02 11:41:49;;;;;;;33.97;16.37;;;7.60;99.90;;;;;;5007042;28;20940;-71
2022/12/02 11:44:28;;;;;;;29.87;16.20;;;7.60;99.90;;;;;;4997991;28;20440;-69
2022/12/02 11:47:04;;;;;;;29.10;16.10;;;7.60;99.90;;;;;;4996044;28;20774;-68
2022/12/02 11:49:39;;;;;;;33.30;17.37;;;7.60;99.90;;;;;;4999251;28;20470;-70
2022/12/02 11:52:12;;;;;;;27.13;16.10;;;7.70;99.90;;;;;;5010575;28;20938;-70
2022/12/02 11:54:41;;;;;;;28.00;16.17;;;7.70;99.90;;;;;;5018959;28;20967;-69
2022/12/02 11:57:14;;;;;;;31.20;17.10;;;7.80;99.90;;;;;;4982926;28;20979;-70
2022/12/02 11:59:40;;;;;;;25.93;14.63;;;7.80;99.90;;;;;;5012920;28;20549;-69
2022/12/02 12:02:10;;;;;;;26.90;16.50;;;7.80;99.90;;;;;;5007744;28;20578;-69
2022/12/02 12:04:35;;;;;;;25.37;14.30;;;7.80;99.90;;;;;;5016339;28;20437;-68
2022/12/02 12:07:01;;;;;;;27.40;14.77;;;7.80;99.90;;;;;;5013404;28;20443;-69
2022/12/02 12:09:27;;;;;;;26.80;16.07;;;7.80;99.90;;;;;;4998689;28;20208;-70
2022/12/02 12:12:14;;;;;;;28.77;14.97;;;7.80;99.90;;;;;;5018548;28;20717;-69
2022/12/02 12:15:04;;;;;;;23.20;13.80;;;7.80;99.90;;;;;;5015316;28;20451;-68
2022/12/02 12:17:38;;;;;;;27.23;14.80;;;7.80;99.90;;;;;;5016691;28;20450;-68
2022/12/02 12:20:25;;;;;;;23.30;14.40;;;7.80;99.90;;;;;;5010735;28;20478;-68
2022/12/02 12:22:51;;;;;;;25.43;14.07;;;7.80;99.90;;;;;;5020067;28;20479;-68
2022/12/02 12:25:42;;;;;;;30.40;15.63;;;7.80;99.90;;;;;;5017452;28;20431;-69
2022/12/02 12:28:28;;;;;;;28.73;16.97;;;7.80;99.90;;;;;;5016014;28;20809;-69
2022/12/02 12:30:54;;;;;;;25.43;13.93;;;7.80;99.90;;;;;;5003822;28;20440;-68
2022/12/02 12:33:20;;;;;;;28.63;16.10;;;7.80;99.90;;;;;;5016049;28;20439;-70
2022/12/02 12:35:46;;;;;;;26.90;15.87;;;7.70;99.90;;;;;;5017344;28;20461;-69
2022/12/02 12:38:11;;;;;;;30.50;15.90;;;7.80;99.90;;;;;;5014915;28;20764;-69
2022/12/02 12:40:37;;;;;;;29.80;16.07;;;7.80;99.90;;;;;;4996786;28;20752;-69
2022/12/02 12:43:02;;;;;;;26.83;15.27;;;7.80;99.90;;;;;;5000829;28;20216;-69
2022/12/02 12:45:28;;;;;;;32.13;15.80;;;7.90;99.90;;;;;;5020253;28;20808;-70
2022/12/02 12:47:53;;;;;;;23.67;15.40;;;7.80;99.90;;;;;;5017309;28;20223;-68